首页
METAR-TAF:

METAR-TAF

机场 :

内利斯空军基地

Nellis, 内华达州, 美国

纬度: 36-14N, 经度: 115-02W, 海拔: 570米

当前天气观测

该预报发布于43分钟前的07:58 UTC
静风
温度 6°C
湿度 100%
气压 1023 hPa
能見度: 16.1公里
天空无云

METAR: KLSV 120758Z AUTO 00000KT 10SM CLR 06/06 A3022 RMK AO2 SLP233 T00630063 401430035 $

时间: 00:41 (08:41 UTC)

预报

该预报发布于1小时和41分钟前的07:00 UTC
预报有效从12日的 07点(UTC)到 13日的 13点(UTC)
风速6节,风向多变
能见度10公里或以上
少量云层高于15000英尺
散云层高于25000英尺
成为
从 12日的 09点(UTC)到 12日的 10点(UTC)
风速6节,风向多变
能见度10公里或以上
多云层高于25000英尺

TAF: KLSV 120700Z 1207/1313 VRB06KT 9999 FEW150 SCT250 QNH3021INS BECMG 1209/1210 VRB06KT 9999 BKN250 QNH3018INS TX15/1122Z TN03/1214Z

超过4000个机场的气象观测和天气预报(METAR&TAF报告)。

可查询的气象台以黄色和红色小点在地图上表示。

将鼠标移到小点上方,可查看气象台名称。

然后点击查看天气观测和预报。

如需切换地图:点击带黑十字的绿色按钮放大地图;点击带横线的绿色按钮缩小地图;或者点击绿色箭头查看邻近地区的地图。


METAR-TAF: